General Aviation Weather

Text Reports

Enter one or more of the following location identifiers separated by a space:

Zip Code, Four-Character ICAO or Three-Character IATA airport codes.

METAR - Aviation Routine Weather Report
PASX - Soldotna, Alaska
Updated at 7:36 AM GMT on July 13, 2014 (11:36 PM AKDT):
METAR PASX 130736Z AUTO 00000KT 10SM FEW070 BKN080 OVC110 12/07 A3001 RMK AO1
TAF - Terminal Area Forecast
PASX - Soldotna, Alaska
Updated at 7:36 AM GMT on July 13, 2014 (11:36 PM AKDT):
No TAF is currently available for this location.
Decoded:
No decoded TAF is available.
PIREP - Pilot Weather Report
PASX - Soldotna, Alaska
Updated at 7:36 AM GMT on July 13, 2014 (11:36 PM AKDT):
No PIREP is currently available for this location.
AIRMET - Airmens Meteorological Information
PASX - Soldotna, Alaska
Updated at 7:36 AM GMT on July 13, 2014 (11:36 PM AKDT):
No AIRMET is currently available for this location.
SIGMET - Significant Meteorological Information
PASX - Soldotna, Alaska
Updated at 7:36 AM GMT on July 13, 2014 (11:36 PM AKDT):
No SIGMET is currently available for this location.
NOTAM - Notice to Airmen
PASX - Soldotna, Alaska
Updated at 7:36 AM GMT on July 13, 2014 (11:36 PM AKDT):
No NOTAM is currently available for this location.
Forecast Area
PASX - Soldotna, Alaska
Updated at 7:36 AM GMT on July 13, 2014 (11:36 PM AKDT):
No NOTAM is currently available for this location.
Aviation Weather Maps